createdAt,value
2023-04-19T00:01:12.376Z,10.30
2023-04-19T00:02:45.177Z,10.30
2023-04-19T00:04:19.068Z,10.30
2023-04-19T00:05:54.386Z,10.30
2023-04-19T00:07:27.241Z,10.20
2023-04-19T00:08:59.923Z,10.20
2023-04-19T00:10:31.770Z,10.20
2023-04-19T00:12:04.644Z,10.20
2023-04-19T00:13:36.448Z,10.20
2023-04-19T00:15:09.934Z,10.10
2023-04-19T00:16:42.830Z,10.10
2023-04-19T00:18:15.656Z,10.10
2023-04-19T00:19:49.689Z,10.10
2023-04-19T00:21:22.406Z,10.00
2023-04-19T00:22:55.583Z,10.00
2023-04-19T00:24:27.332Z,10.00
2023-04-19T00:26:00.079Z,10.00
2023-04-19T00:27:32.829Z,10.00
2023-04-19T00:29:05.517Z,10.00
2023-04-19T00:30:38.247Z,10.00
2023-04-19T00:32:11.089Z,10.00
2023-04-19T00:33:43.823Z,10.00
2023-04-19T00:35:18.047Z,10.10
2023-04-19T00:36:50.730Z,10.10
2023-04-19T00:38:23.433Z,10.20
2023-04-19T00:39:56.155Z,10.10
2023-04-19T00:41:28.864Z,10.10
2023-04-19T00:43:01.592Z,10.10
2023-04-19T00:44:33.341Z,10.10
2023-04-19T00:46:07.084Z,10.10
2023-04-19T00:47:40.016Z,10.20
2023-04-19T00:49:11.779Z,10.20
2023-04-19T00:50:46.253Z,10.20
2023-04-19T00:52:18.997Z,10.20
2023-04-19T00:53:52.321Z,10.20
2023-04-19T00:55:24.802Z,10.20
2023-04-19T00:56:58.334Z,10.20
2023-04-19T00:58:32.636Z,10.20
2023-04-19T01:00:07.948Z,10.20
2023-04-19T01:01:41.596Z,10.30
2023-04-19T01:03:13.553Z,10.20
2023-04-19T01:04:46.435Z,10.20
2023-04-19T01:06:20.899Z,10.20
2023-04-19T01:07:52.713Z,10.20
2023-04-19T01:09:25.406Z,10.20
2023-04-19T01:10:58.072Z,10.30
2023-04-19T01:12:29.816Z,10.20
2023-04-19T01:14:02.606Z,10.20
2023-04-19T01:15:35.443Z,10.20
2023-04-19T01:17:07.586Z,10.20
2023-04-19T01:18:40.703Z,10.20
2023-04-19T01:20:13.430Z,10.20
2023-04-19T01:21:47.500Z,10.30
2023-04-19T01:23:21.528Z,10.30
2023-04-19T01:24:54.209Z,10.30
2023-04-19T01:26:26.337Z,10.30
2023-04-19T01:27:59.016Z,10.30
2023-04-19T01:29:31.704Z,10.30
2023-04-19T01:31:04.688Z,10.30
2023-04-19T01:32:36.577Z,10.30
2023-04-19T01:34:09.289Z,10.30
2023-04-19T01:35:41.975Z,10.30
2023-04-19T01:37:14.814Z,10.30
2023-04-19T01:38:48.895Z,10.20
2023-04-19T01:40:22.595Z,10.20
2023-04-19T01:41:55.327Z,10.20
2023-04-19T01:43:27.052Z,10.20
2023-04-19T01:44:59.989Z,10.20
2023-04-19T01:46:31.876Z,10.30
2023-04-19T01:48:05.457Z,10.30
2023-04-19T01:49:37.369Z,10.20
2023-04-19T01:51:10.051Z,10.30
2023-04-19T01:52:41.813Z,10.30
2023-04-19T01:54:16.108Z,10.30
2023-04-19T01:55:49.016Z,10.20
2023-04-19T01:57:21.768Z,10.20
2023-04-19T01:58:53.540Z,10.20
2023-04-19T02:00:26.238Z,10.20
2023-04-19T02:01:59.086Z,10.20
2023-04-19T02:03:31.971Z,10.20
2023-04-19T02:05:05.543Z,10.20
2023-04-19T02:06:38.286Z,10.20
2023-04-19T02:08:11.005Z,10.20
2023-04-19T02:09:45.085Z,10.20
2023-04-19T02:11:17.813Z,10.20
2023-04-19T02:12:50.549Z,10.20
2023-04-19T02:14:23.301Z,10.20
2023-04-19T02:15:55.990Z,10.10
2023-04-19T02:17:28.964Z,10.20
2023-04-19T02:19:01.765Z,10.20
2023-04-19T02:20:33.534Z,10.20
2023-04-19T02:22:06.229Z,10.10
2023-04-19T02:23:38.216Z,10.10
2023-04-19T02:25:12.334Z,10.10
2023-04-19T02:26:44.094Z,10.10
2023-04-19T02:28:16.779Z,10.10
2023-04-19T02:29:49.450Z,10.10
2023-04-19T02:31:21.261Z,10.10
2023-04-19T02:32:54.862Z,10.10
2023-04-19T02:34:29.049Z,10.10
2023-04-19T02:36:01.728Z,10.10
2023-04-19T02:37:34.439Z,10.10
2023-04-19T02:39:07.276Z,10.10
2023-04-19T02:40:41.401Z,10.10
2023-04-19T02:42:14.093Z,10.00
2023-04-19T02:43:46.806Z,10.10
2023-04-19T02:45:19.556Z,10.00
2023-04-19T02:46:52.922Z,10.00
2023-04-19T02:48:26.044Z,10.10
2023-04-19T02:49:58.770Z,10.10
2023-04-19T02:51:31.507Z,10.10
2023-04-19T02:53:04.184Z,10.00
2023-04-19T02:54:35.967Z,10.00
2023-04-19T02:56:10.700Z,10.00
2023-04-19T02:57:43.375Z,10.00
2023-04-19T02:59:16.065Z,10.00
2023-04-19T03:00:48.791Z,10.00
2023-04-19T03:02:21.567Z,10.00
2023-04-19T03:03:54.479Z,10.00
2023-04-19T03:05:26.260Z,10.00
2023-04-19T03:06:58.976Z,10.00
2023-04-19T03:08:31.712Z,10.00
2023-04-19T03:10:04.922Z,10.00
2023-04-19T03:11:38.953Z,10.00
2023-04-19T03:13:11.699Z,10.00
2023-04-19T03:14:44.419Z,10.00
2023-04-19T03:16:17.266Z,10.00
2023-04-19T03:17:50.305Z,10.00
2023-04-19T03:19:23.130Z,10.00
2023-04-19T03:20:54.899Z,10.00
2023-04-19T03:22:27.631Z,10.00
2023-04-19T03:23:59.394Z,10.00
2023-04-19T03:25:33.117Z,10.10
2023-04-19T03:27:07.157Z,10.10
2023-04-19T03:28:39.857Z,10.10
2023-04-19T03:30:13.769Z,10.10
2023-04-19T03:31:46.538Z,10.00
2023-04-19T03:33:19.373Z,10.00
2023-04-19T03:34:52.089Z,10.00
2023-04-19T03:36:24.925Z,10.00
2023-04-19T03:37:57.637Z,10.00
2023-04-19T03:39:30.329Z,10.00
2023-04-19T03:41:03.039Z,10.00
2023-04-19T03:42:37.091Z,10.00
2023-04-19T03:44:09.807Z,10.00
2023-04-19T03:45:42.500Z,9.90
2023-04-19T03:47:15.227Z,10.00
2023-04-19T03:48:48.144Z,10.00
2023-04-19T03:50:20.848Z,10.00
2023-04-19T03:51:53.599Z,10.00
2023-04-19T03:53:26.288Z,9.90
2023-04-19T03:54:58.962Z,9.90
2023-04-19T03:56:31.673Z,9.90
2023-04-19T03:58:05.685Z,9.90
2023-04-19T03:59:37.410Z,9.90
2023-04-19T04:01:18.065Z,9.90
2023-04-19T04:02:51.035Z,9.90
2023-04-19T04:04:24.081Z,9.80
2023-04-19T04:05:56.853Z,9.90
2023-04-19T04:07:28.570Z,9.90
2023-04-19T04:09:01.512Z,9.80
2023-04-19T04:10:34.219Z,9.90
2023-04-19T04:12:07.255Z,9.80
2023-04-19T04:13:41.315Z,9.90
2023-04-19T04:15:14.001Z,9.80
2023-04-19T04:16:46.749Z,9.80
2023-04-19T04:18:19.592Z,9.80
2023-04-19T04:19:51.330Z,9.80
2023-04-19T04:21:24.718Z,9.80
2023-04-19T04:22:57.418Z,9.80
2023-04-19T04:24:32.801Z,9.90
2023-04-19T04:26:06.161Z,9.90
2023-04-19T04:27:39.231Z,9.90
2023-04-19T04:29:13.478Z,9.90
2023-04-19T04:30:47.095Z,9.90
2023-04-19T04:32:23.127Z,9.90
2023-04-19T04:33:56.149Z,9.80
2023-04-19T04:35:29.803Z,9.90
2023-04-19T04:37:02.835Z,9.80
2023-04-19T04:38:35.769Z,9.80
2023-04-19T04:40:09.843Z,9.80
2023-04-19T04:41:42.534Z,9.80
2023-04-19T04:43:15.213Z,9.80
2023-04-19T04:44:50.936Z,9.80
2023-04-19T04:46:22.797Z,9.80
2023-04-19T04:47:55.743Z,9.80
2023-04-19T04:49:28.467Z,9.80
2023-04-19T04:51:01.226Z,9.80
2023-04-19T04:52:32.957Z,9.80
2023-04-19T04:54:06.090Z,9.80
2023-04-19T04:55:38.868Z,9.80
2023-04-19T04:57:11.585Z,9.80
2023-04-19T04:58:44.279Z,9.80
2023-04-19T05:00:19.051Z,9.80
2023-04-19T05:01:51.859Z,9.80
2023-04-19T05:03:24.662Z,9.70
2023-04-19T05:04:57.401Z,9.70
2023-04-19T05:06:30.093Z,9.70
2023-04-19T05:08:02.783Z,9.70
2023-04-19T05:09:35.492Z,9.70
2023-04-19T05:11:08.357Z,9.70
2023-04-19T05:12:41.281Z,9.70
2023-04-19T05:14:14.100Z,9.70
2023-04-19T05:15:48.222Z,9.70
2023-04-19T05:17:20.958Z,9.70
2023-04-19T05:18:53.674Z,9.80
2023-04-19T05:20:26.634Z,9.80
2023-04-19T05:21:59.346Z,9.80
2023-04-19T05:23:32.081Z,9.80
2023-04-19T05:25:05.415Z,9.80
2023-04-19T05:26:38.176Z,9.80
2023-04-19T05:28:10.903Z,9.80
2023-04-19T05:29:43.612Z,9.80
2023-04-19T05:31:18.126Z,9.80
2023-04-19T05:32:52.564Z,9.80
2023-04-19T05:34:25.943Z,9.80
2023-04-19T05:35:58.629Z,9.80
2023-04-19T05:37:31.398Z,9.90
2023-04-19T05:39:04.223Z,9.90
2023-04-19T05:40:37.016Z,9.90
2023-04-19T05:42:09.747Z,10.00
2023-04-19T05:43:42.461Z,10.00
2023-04-19T05:45:15.880Z,10.00
2023-04-19T05:46:49.911Z,10.00
2023-04-19T05:48:22.602Z,10.00
2023-04-19T05:49:55.315Z,10.10
2023-04-19T05:51:28.175Z,10.10
2023-04-19T05:53:00.995Z,10.10
2023-04-19T05:54:35.888Z,10.10
2023-04-19T05:56:08.822Z,10.20
2023-04-19T05:57:42.825Z,10.20
2023-04-19T05:59:15.580Z,10.20
2023-04-19T06:00:48.897Z,10.20
2023-04-19T06:02:23.176Z,10.20
2023-04-19T06:03:56.438Z,10.20
2023-04-19T06:05:29.336Z,10.20
2023-04-19T06:07:03.142Z,10.20
2023-04-19T06:08:37.157Z,10.20
2023-04-19T06:10:11.062Z,10.20
2023-04-19T06:11:50.539Z,10.20
2023-04-19T06:13:24.444Z,10.30
2023-04-19T06:14:57.315Z,10.30
2023-04-19T06:16:30.086Z,10.30
2023-04-19T06:18:05.760Z,10.30
2023-04-19T06:19:39.179Z,10.30
2023-04-19T06:21:11.887Z,10.40
2023-04-19T06:22:46.169Z,10.40
2023-04-19T06:24:18.863Z,10.40
2023-04-19T06:25:51.570Z,10.40
2023-04-19T06:27:24.673Z,10.50
2023-04-19T06:28:57.392Z,10.50
2023-04-19T06:30:30.142Z,10.50
2023-04-19T06:32:02.858Z,10.60
2023-04-19T06:33:36.997Z,10.60
2023-04-19T06:35:10.401Z,10.60
2023-04-19T06:36:43.255Z,10.70
2023-04-19T06:38:16.335Z,10.80
2023-04-19T06:39:49.203Z,10.90
2023-04-19T06:41:23.040Z,10.90
2023-04-19T06:42:55.841Z,10.90
2023-04-19T06:44:28.567Z,11.00
2023-04-19T06:46:02.075Z,11.00
2023-04-19T06:47:35.964Z,11.00
2023-04-19T06:49:10.167Z,11.10
2023-04-19T06:50:42.911Z,11.20
2023-04-19T06:52:15.601Z,11.20
2023-04-19T06:53:48.295Z,11.20
2023-04-19T06:55:21.171Z,11.20
2023-04-19T06:56:53.894Z,11.20
2023-04-19T06:58:26.794Z,11.20
2023-04-19T06:59:59.571Z,11.20
2023-04-19T07:01:32.797Z,11.20
2023-04-19T07:03:08.962Z,11.20
2023-04-19T07:04:43.221Z,11.20
2023-04-19T07:06:16.293Z,11.20
2023-04-19T07:07:48.982Z,11.20
2023-04-19T07:09:21.751Z,11.20
2023-04-19T07:10:56.523Z,11.20
2023-04-19T07:12:29.225Z,11.10
2023-04-19T07:14:01.964Z,11.20
2023-04-19T07:15:34.652Z,11.10
2023-04-19T07:17:07.384Z,11.20
2023-04-19T07:18:40.157Z,11.20
2023-04-19T07:20:14.284Z,11.20
2023-04-19T07:21:46.995Z,11.10
2023-04-19T07:23:19.738Z,11.10
2023-04-19T07:24:53.196Z,11.10
2023-04-19T07:26:25.936Z,11.10
2023-04-19T07:27:58.625Z,11.10
2023-04-19T07:29:31.310Z,11.10
2023-04-19T07:31:04.113Z,11.10
2023-04-19T07:32:37.169Z,11.10
2023-04-19T07:34:10.611Z,11.10
2023-04-19T07:35:44.776Z,11.10
2023-04-19T07:37:17.484Z,11.00
2023-04-19T07:38:50.225Z,11.00
2023-04-19T07:40:22.988Z,11.10
2023-04-19T07:41:56.262Z,11.10
2023-04-19T07:43:30.902Z,11.10
2023-04-19T07:45:03.853Z,11.10
2023-04-19T07:46:36.682Z,11.10
2023-04-19T07:48:09.933Z,11.10
2023-04-19T07:49:44.306Z,11.10
2023-04-19T07:51:19.243Z,11.10
2023-04-19T07:52:51.965Z,11.10
2023-04-19T07:54:24.662Z,11.10
2023-04-19T07:55:57.337Z,11.10
2023-04-19T07:57:30.020Z,11.10
2023-04-19T07:59:08.147Z,11.10
2023-04-19T08:00:41.431Z,11.10
2023-04-19T08:02:15.652Z,11.10
2023-04-19T08:03:48.667Z,11.10
2023-04-19T08:05:21.778Z,11.10
2023-04-19T08:06:56.330Z,11.20
2023-04-19T08:08:29.177Z,11.20
2023-04-19T08:10:02.026Z,11.10
2023-04-19T08:11:34.861Z,11.10
2023-04-19T08:13:07.562Z,11.10
2023-04-19T08:14:51.087Z,11.10
2023-04-19T08:17:11.392Z,11.10
2023-04-19T08:18:25.409Z,11.10
2023-04-19T08:19:58.145Z,11.10
2023-04-19T08:21:40.497Z,11.10
2023-04-19T08:23:22.688Z,11.20
2023-04-19T08:24:57.063Z,11.20
2023-04-19T08:26:29.745Z,11.30
2023-04-19T08:28:02.854Z,11.30
2023-04-19T08:29:35.925Z,11.30
2023-04-19T08:31:08.727Z,11.30
2023-04-19T08:32:41.498Z,11.30
2023-04-19T08:34:14.331Z,11.40
2023-04-19T08:35:47.049Z,11.40
2023-04-19T08:37:19.855Z,11.50
2023-04-19T08:39:04.125Z,11.40
2023-04-19T08:40:46.488Z,11.50
2023-04-19T08:42:33.278Z,11.50
2023-04-19T08:44:12.572Z,11.60
2023-04-19T08:45:47.776Z,11.60
2023-04-19T08:47:30.334Z,11.60
2023-04-19T08:49:06.624Z,11.70
2023-04-19T08:50:55.824Z,11.70
2023-04-19T08:52:41.646Z,11.70
2023-04-19T08:54:22.787Z,11.80
2023-04-19T08:57:36.588Z,11.80
2023-04-19T08:59:17.978Z,11.80
2023-04-19T09:00:51.760Z,11.80
2023-04-19T09:02:25.415Z,11.80
2023-04-19T09:04:09.583Z,11.80
2023-04-19T09:05:49.619Z,11.90
2023-04-19T09:07:25.869Z,11.90
2023-04-19T09:09:28.900Z,11.80
2023-04-19T09:11:07.974Z,11.80
2023-04-19T09:12:42.108Z,11.80
2023-04-19T09:14:16.555Z,11.80
2023-04-19T09:15:49.312Z,11.80
2023-04-19T09:17:22.024Z,11.90
2023-04-19T09:19:08.093Z,11.90
2023-04-19T09:20:45.470Z,12.00
2023-04-19T09:22:18.541Z,12.00
2023-04-19T09:23:51.259Z,12.00
2023-04-19T09:27:04.003Z,12.00
2023-04-19T09:28:36.737Z,12.00
2023-04-19T09:30:17.671Z,12.10
2023-04-19T09:32:00.523Z,12.10
2023-04-19T09:33:34.597Z,12.10
2023-04-19T09:35:08.396Z,12.10
2023-04-19T09:36:41.457Z,12.10
2023-04-19T09:38:14.423Z,12.10
2023-04-19T09:39:47.125Z,12.10
2023-04-19T09:41:19.925Z,12.20
2023-04-19T09:46:05.734Z,12.20
2023-04-19T09:47:38.472Z,12.30
2023-04-19T09:49:36.833Z,12.40
2023-04-19T09:51:14.925Z,12.60
2023-04-19T09:52:49.767Z,12.80
2023-04-19T09:54:27.299Z,13.00
2023-04-19T09:56:02.732Z,13.20
2023-04-19T09:57:36.453Z,13.30
2023-04-19T09:59:20.202Z,13.40
2023-04-19T10:01:10.541Z,13.50
2023-04-19T10:02:54.304Z,13.60
2023-04-19T10:04:38.313Z,13.70
2023-04-19T10:08:00.176Z,13.90
2023-04-19T10:09:45.863Z,13.90
2023-04-19T10:11:27.864Z,13.90
2023-04-19T10:14:41.174Z,13.80
2023-04-19T10:16:19.386Z,13.70
2023-04-19T10:17:53.492Z,13.70
2023-04-19T10:19:26.385Z,13.80
2023-04-19T10:21:02.327Z,13.80
2023-04-19T10:22:37.599Z,13.90
2023-04-19T10:24:11.191Z,13.90
2023-04-19T10:25:47.877Z,14.00
2023-04-19T10:27:26.638Z,14.00
2023-04-19T10:28:59.412Z,14.00
2023-04-19T10:30:33.549Z,14.00
2023-04-19T10:32:06.617Z,14.00
2023-04-19T10:33:40.941Z,14.10
2023-04-19T10:35:20.945Z,14.20
2023-04-19T10:36:53.680Z,14.20
2023-04-19T10:38:37.986Z,14.20
2023-04-19T10:40:12.650Z,14.30
2023-04-19T10:41:59.220Z,14.30
2023-04-19T10:43:33.706Z,14.20
2023-04-19T10:45:35.581Z,14.30
2023-04-19T10:47:08.262Z,14.30
2023-04-19T10:48:53.444Z,14.40
2023-04-19T10:50:26.835Z,14.30
2023-04-19T10:52:00.172Z,14.40
2023-04-19T10:53:48.636Z,14.50
2023-04-19T10:55:21.503Z,14.50
2023-04-19T10:57:12.185Z,14.60
2023-04-19T10:59:24.617Z,14.60
2023-04-19T11:01:29.860Z,14.60
2023-04-19T11:03:42.863Z,14.80
2023-04-19T11:05:16.924Z,14.90
2023-04-19T11:07:04.646Z,15.00
2023-04-19T11:08:37.410Z,14.90
2023-04-19T11:10:12.198Z,14.90
2023-04-19T11:11:45.292Z,14.90
2023-04-19T11:13:18.769Z,14.80
2023-04-19T11:14:53.961Z,14.80
2023-04-19T11:16:38.311Z,14.70
2023-04-19T11:18:20.936Z,14.60
2023-04-19T11:19:58.550Z,14.60
2023-04-19T11:21:32.174Z,14.60
2023-04-19T11:23:16.522Z,14.60
2023-04-19T11:24:49.221Z,14.60
2023-04-19T11:26:24.625Z,14.60
2023-04-19T11:27:57.674Z,14.50
2023-04-19T11:29:29.471Z,14.50
2023-04-19T11:31:03.269Z,14.50
2023-04-19T11:32:36.505Z,14.50
2023-04-19T11:34:10.588Z,14.40
2023-04-19T11:35:44.784Z,14.40
2023-04-19T11:37:17.496Z,14.30
2023-04-19T11:38:50.580Z,14.40
2023-04-19T11:40:25.967Z,14.40
2023-04-19T11:41:59.450Z,14.40
2023-04-19T11:43:36.441Z,14.40
2023-04-19T11:45:26.129Z,14.50
2023-04-19T11:47:05.052Z,14.60
2023-04-19T11:48:38.477Z,14.80
2023-04-19T11:50:38.917Z,14.80
2023-04-19T11:52:11.739Z,14.90
2023-04-19T11:53:44.458Z,14.90
2023-04-19T11:55:20.780Z,14.90
2023-04-19T11:57:07.251Z,14.90
2023-04-19T11:58:44.521Z,14.90
2023-04-19T12:00:27.576Z,14.90
2023-04-19T12:02:10.475Z,14.90
2023-04-19T12:03:46.726Z,14.90
2023-04-19T12:05:19.685Z,14.80
2023-04-19T12:07:02.336Z,14.80
2023-04-19T12:08:37.136Z,14.80
2023-04-19T12:10:10.440Z,14.90
2023-04-19T12:11:45.811Z,15.00
2023-04-19T12:13:19.194Z,15.00
2023-04-19T12:14:53.572Z,15.20
2023-04-19T12:16:29.297Z,15.30
2023-04-19T12:18:03.558Z,15.30
2023-04-19T12:19:38.035Z,15.30
2023-04-19T12:21:10.890Z,15.30
2023-04-19T12:22:44.926Z,15.30
2023-04-19T12:24:18.087Z,15.30
2023-04-19T12:25:51.864Z,15.30
2023-04-19T12:27:25.630Z,15.20
2023-04-19T12:28:59.910Z,15.20
2023-04-19T12:30:32.995Z,15.10
2023-04-19T12:32:06.875Z,15.10
2023-04-19T12:33:39.657Z,15.20
2023-04-19T12:35:12.378Z,15.10
2023-04-19T12:36:45.237Z,15.10
2023-04-19T12:38:19.294Z,15.10
2023-04-19T12:39:52.020Z,15.10
2023-04-19T12:41:24.824Z,15.10
2023-04-19T12:42:57.520Z,15.20
2023-04-19T12:44:30.465Z,15.20
2023-04-19T12:46:03.237Z,15.20
2023-04-19T12:47:35.952Z,15.20
2023-04-19T12:49:08.767Z,15.20
2023-04-19T12:50:41.580Z,15.10
2023-04-19T12:52:14.288Z,15.00
2023-04-19T12:53:50.934Z,14.90
2023-04-19T12:55:23.631Z,14.90
2023-04-19T12:56:56.330Z,14.90
2023-04-19T12:58:29.036Z,14.90
2023-04-19T13:00:01.949Z,14.90
2023-04-19T13:01:34.676Z,14.90
2023-04-19T13:03:07.538Z,14.90
2023-04-19T13:04:40.362Z,14.90
2023-04-19T13:06:14.754Z,14.90
2023-04-19T13:07:47.504Z,14.90
2023-04-19T13:09:21.563Z,15.00
2023-04-19T13:10:54.346Z,14.90
2023-04-19T13:12:27.027Z,14.90
2023-04-19T13:13:59.812Z,14.90
2023-04-19T13:15:32.530Z,14.90
2023-04-19T13:17:05.489Z,14.90
2023-04-19T13:18:38.192Z,14.90
2023-04-19T13:20:11.317Z,14.90
2023-04-19T13:21:44.020Z,14.90
2023-04-19T13:23:15.762Z,15.00
2023-04-19T13:24:49.799Z,15.00
2023-04-19T13:26:22.531Z,15.00
2023-04-19T13:27:55.314Z,15.00
2023-04-19T13:29:28.971Z,15.00
2023-04-19T13:31:01.676Z,15.00
2023-04-19T13:32:34.990Z,15.00
2023-04-19T13:34:07.695Z,15.00
2023-04-19T13:35:40.452Z,15.10
2023-04-19T13:37:13.155Z,15.10
2023-04-19T13:38:46.213Z,15.10
2023-04-19T13:40:20.488Z,15.10
2023-04-19T13:41:53.175Z,15.10
2023-04-19T13:43:26.102Z,15.10
2023-04-19T13:44:58.838Z,15.10
2023-04-19T13:46:31.577Z,15.10
2023-04-19T13:48:04.448Z,15.00
2023-04-19T13:49:37.200Z,15.00
2023-04-19T13:51:10.149Z,15.00
2023-04-19T13:52:42.862Z,15.00
2023-04-19T13:54:17.539Z,14.90
2023-04-19T13:55:52.105Z,14.90
2023-04-19T13:57:24.842Z,14.90
2023-04-19T13:58:57.542Z,14.90
2023-04-19T14:00:30.337Z,14.90
2023-04-19T14:02:04.261Z,14.90
2023-04-19T14:03:37.211Z,14.90
2023-04-19T14:05:11.722Z,14.90
2023-04-19T14:06:44.647Z,14.90
2023-04-19T14:08:17.351Z,15.00
2023-04-19T14:09:50.155Z,14.90
2023-04-19T14:11:25.764Z,15.00
2023-04-19T14:12:58.634Z,14.90
2023-04-19T14:14:32.469Z,14.90
2023-04-19T14:16:05.774Z,15.00
2023-04-19T14:17:38.543Z,15.00
2023-04-19T14:19:11.310Z,15.00
2023-04-19T14:20:44.074Z,15.00
2023-04-19T14:22:17.959Z,14.90
2023-04-19T14:23:50.986Z,14.90
2023-04-19T14:25:23.911Z,14.90
2023-04-19T14:28:36.176Z,14.90
2023-04-19T14:30:09.973Z,14.90
2023-04-19T14:31:42.681Z,14.90
2023-04-19T14:33:15.475Z,14.90
2023-04-19T14:34:48.235Z,14.90
2023-04-19T14:36:20.979Z,15.00
2023-04-19T14:37:53.734Z,15.00
2023-04-19T14:39:26.423Z,15.00
2023-04-19T14:40:59.119Z,15.00
2023-04-19T14:42:33.403Z,15.10
2023-04-19T14:44:06.241Z,15.00
2023-04-19T14:45:38.933Z,15.00
2023-04-19T14:47:11.953Z,14.90
2023-04-19T14:48:44.673Z,15.00
2023-04-19T14:50:17.592Z,14.90
2023-04-19T14:51:50.281Z,14.90
2023-04-19T14:53:23.103Z,14.90
2023-04-19T14:54:57.417Z,14.90
2023-04-19T14:56:30.778Z,14.90
2023-04-19T14:58:04.869Z,14.90
2023-04-19T14:59:37.585Z,14.90
2023-04-19T15:01:14.129Z,14.90
2023-04-19T15:02:47.003Z,15.00
2023-04-19T15:04:19.896Z,15.00
2023-04-19T15:05:52.849Z,15.00
2023-04-19T15:07:26.347Z,15.00
2023-04-19T15:08:59.187Z,15.00
2023-04-19T15:10:31.932Z,15.00
2023-04-19T15:12:04.953Z,14.90
2023-04-19T15:13:38.970Z,15.00
2023-04-19T15:15:12.592Z,15.00
2023-04-19T15:16:45.306Z,14.90
2023-04-19T15:18:18.041Z,14.90
2023-04-19T15:19:50.819Z,14.90
2023-04-19T15:21:24.756Z,14.90
2023-04-19T15:22:57.634Z,14.90
2023-04-19T15:24:30.336Z,14.90
2023-04-19T15:26:03.184Z,14.90
2023-04-19T15:27:35.842Z,15.00
2023-04-19T15:29:09.908Z,14.90
2023-04-19T15:30:42.628Z,14.90
2023-04-19T15:32:15.678Z,14.90
2023-04-19T15:33:48.373Z,14.80
2023-04-19T15:35:21.378Z,14.80
2023-04-19T15:36:54.104Z,14.80
2023-04-19T15:38:29.482Z,14.80
2023-04-19T15:40:02.173Z,14.80
2023-04-19T15:41:34.875Z,14.80
2023-04-19T15:43:08.178Z,14.80
2023-04-19T15:44:44.066Z,14.80
2023-04-19T15:46:17.294Z,14.80
2023-04-19T15:47:50.103Z,14.80
2023-04-19T15:49:22.833Z,14.70
2023-04-19T15:50:55.623Z,14.80
2023-04-19T15:52:28.336Z,14.70
2023-04-19T15:54:01.034Z,14.60
2023-04-19T15:55:34.669Z,14.60
2023-04-19T15:57:07.357Z,14.60
2023-04-19T15:58:40.087Z,14.60
2023-04-19T16:00:15.232Z,14.60
2023-04-19T16:01:48.003Z,14.60
2023-04-19T16:03:21.023Z,14.60
2023-04-19T16:04:54.010Z,14.60
2023-04-19T16:06:27.281Z,14.60
2023-04-19T16:08:03.586Z,14.60
2023-04-19T16:09:36.495Z,14.60
2023-04-19T16:11:09.253Z,14.50
2023-04-19T16:12:42.428Z,14.50
2023-04-19T16:14:15.160Z,14.50
2023-04-19T16:15:49.252Z,14.50
2023-04-19T16:17:21.987Z,14.50
2023-04-19T16:18:54.701Z,14.50
2023-04-19T16:20:27.476Z,14.40
2023-04-19T16:23:34.655Z,14.40
2023-04-19T16:25:10.175Z,14.40
2023-04-19T16:26:42.876Z,14.40
2023-04-19T16:28:15.586Z,14.40
2023-04-19T16:29:48.274Z,14.40
2023-04-19T16:31:22.736Z,14.40
2023-04-19T16:32:56.297Z,14.40
2023-04-19T16:34:29.045Z,14.30
2023-04-19T16:36:01.752Z,14.30
2023-04-19T16:37:34.581Z,14.30
2023-04-19T16:39:07.265Z,14.20
2023-04-19T16:40:40.159Z,14.20
2023-04-19T16:42:12.857Z,14.10
2023-04-19T16:43:45.865Z,14.00
2023-04-19T16:45:18.758Z,13.90
2023-04-19T16:46:52.849Z,13.90
2023-04-19T16:48:25.884Z,13.90
2023-04-19T16:49:58.761Z,13.80
2023-04-19T16:51:31.739Z,13.80
2023-04-19T16:53:04.499Z,13.70
2023-04-19T16:54:37.851Z,13.60
2023-04-19T16:56:10.537Z,13.50
2023-04-19T16:57:43.259Z,13.60
2023-04-19T16:59:16.273Z,13.50
2023-04-19T17:00:49.239Z,13.50
2023-04-19T17:02:23.570Z,13.50
2023-04-19T17:03:56.500Z,13.50
2023-04-19T17:05:29.260Z,13.40
2023-04-19T17:07:01.951Z,13.30
2023-04-19T17:08:34.808Z,13.30
2023-04-19T17:10:08.641Z,13.30
2023-04-19T17:11:41.373Z,13.30
2023-04-19T17:13:14.119Z,13.20
2023-04-19T17:14:46.851Z,13.20
2023-04-19T17:16:19.720Z,13.10
2023-04-19T17:17:53.962Z,13.10
2023-04-19T17:19:27.352Z,13.00
2023-04-19T17:21:00.353Z,13.00
2023-04-19T17:22:33.047Z,13.00
2023-04-19T17:24:06.587Z,13.00
2023-04-19T17:25:39.347Z,12.90
2023-04-19T17:27:12.068Z,12.90
2023-04-19T17:28:44.754Z,12.80
2023-04-19T17:30:17.594Z,12.70
2023-04-19T17:31:49.632Z,12.60
2023-04-19T17:33:23.847Z,12.60
2023-04-19T17:34:56.766Z,12.60
2023-04-19T17:36:29.525Z,12.50
2023-04-19T17:38:02.216Z,12.50
2023-04-19T17:39:34.939Z,12.50
2023-04-19T17:41:08.480Z,12.50
2023-04-19T17:42:41.181Z,12.50
2023-04-19T17:44:13.883Z,12.40
2023-04-19T17:45:46.585Z,12.40
2023-04-19T17:47:20.082Z,12.40
2023-04-19T17:48:55.388Z,12.30
2023-04-19T17:50:29.686Z,12.30
2023-04-19T17:52:02.365Z,12.20
2023-04-19T17:53:35.126Z,12.20
2023-04-19T17:55:08.701Z,12.10
2023-04-19T17:56:41.773Z,12.10
2023-04-19T17:58:14.523Z,12.10
2023-04-19T17:59:47.213Z,12.00
2023-04-19T18:01:20.015Z,12.00
2023-04-19T18:02:52.942Z,11.90
2023-04-19T18:04:27.251Z,11.90
2023-04-19T18:06:00.158Z,11.80
2023-04-19T18:07:31.916Z,11.80
2023-04-19T18:09:04.795Z,11.70
2023-04-19T18:10:37.547Z,11.70
2023-04-19T18:12:10.247Z,11.70
2023-04-19T18:13:42.956Z,11.70
2023-04-19T18:15:15.714Z,11.60
2023-04-19T18:16:48.700Z,11.60
2023-04-19T18:18:21.548Z,11.60
2023-04-19T18:19:55.820Z,11.60
2023-04-19T18:21:28.760Z,11.60
2023-04-19T18:23:01.756Z,11.50
2023-04-19T18:24:34.482Z,11.50
2023-04-19T18:26:07.175Z,11.40
2023-04-19T18:27:39.858Z,11.50
2023-04-19T18:29:15.726Z,11.40
2023-04-19T18:30:48.769Z,11.40
2023-04-19T18:32:22.559Z,11.40
2023-04-19T18:33:55.238Z,11.40
2023-04-19T18:35:29.315Z,11.40
2023-04-19T18:37:05.246Z,11.30
2023-04-19T18:38:37.931Z,11.30
2023-04-19T18:40:11.964Z,11.30
2023-04-19T18:41:44.639Z,11.30
2023-04-19T18:43:17.517Z,11.30
2023-04-19T18:44:54.312Z,11.30
2023-04-19T18:46:27.411Z,11.30
2023-04-19T18:48:01.583Z,11.20
2023-04-19T18:49:34.340Z,11.20
2023-04-19T18:51:11.563Z,11.20
2023-04-19T18:52:44.238Z,11.20
2023-04-19T18:54:17.180Z,11.10
2023-04-19T18:55:49.890Z,11.10
2023-04-19T18:57:26.580Z,11.20
2023-04-19T18:59:00.213Z,11.10
2023-04-19T19:00:32.907Z,11.10
2023-04-19T19:02:05.866Z,11.10
2023-04-19T19:04:00.611Z,11.10
2023-04-19T19:05:31.414Z,11.00
2023-04-19T19:07:18.064Z,11.00
2023-04-19T19:08:59.701Z,11.00
2023-04-19T19:11:06.238Z,10.90
2023-04-19T19:12:25.147Z,10.90
2023-04-19T19:13:57.830Z,10.90
2023-04-19T19:15:30.752Z,10.80
2023-04-19T19:17:03.682Z,10.80
2023-04-19T19:18:36.428Z,10.80
2023-04-19T19:20:10.678Z,10.80
2023-04-19T19:21:43.393Z,10.70
2023-04-19T19:23:18.271Z,10.70
2023-04-19T19:24:51.062Z,10.60
2023-04-19T19:26:23.930Z,10.60
2023-04-19T19:28:07.470Z,10.60
2023-04-19T19:29:42.568Z,10.50
2023-04-19T19:31:15.312Z,10.50
2023-04-19T19:32:48.130Z,10.40
2023-04-19T19:34:28.775Z,10.40
2023-04-19T19:36:02.989Z,10.40
2023-04-19T19:37:36.370Z,10.30
2023-04-19T19:39:11.234Z,10.30
2023-04-19T19:41:11.092Z,10.30
2023-04-19T19:42:36.671Z,10.20
2023-04-19T19:44:10.453Z,10.10
2023-04-19T19:45:43.254Z,10.10
2023-04-19T19:47:17.246Z,10.00
2023-04-19T19:48:53.573Z,10.00
2023-04-19T19:51:05.137Z,9.90
2023-04-19T19:52:21.423Z,9.90
2023-04-19T19:53:54.107Z,9.80
2023-04-19T19:55:28.413Z,9.70
2023-04-19T19:58:49.664Z,9.70
2023-04-19T20:00:44.015Z,9.60
2023-04-19T20:02:17.861Z,9.60
2023-04-19T20:03:50.898Z,9.50
2023-04-19T20:05:24.580Z,9.50
2023-04-19T20:07:28.690Z,9.50
2023-04-19T20:08:51.367Z,9.40
2023-04-19T20:10:24.198Z,9.40
2023-04-19T20:11:58.855Z,9.40
2023-04-19T20:13:31.569Z,9.30
2023-04-19T20:15:03.973Z,9.30
2023-04-19T20:16:36.822Z,9.30
2023-04-19T20:18:09.732Z,9.30
2023-04-19T20:19:44.946Z,9.20
2023-04-19T20:21:19.473Z,9.20
2023-04-19T20:22:52.300Z,9.20
2023-04-19T20:24:25.596Z,9.10
2023-04-19T20:25:59.704Z,9.10
2023-04-19T20:27:33.906Z,9.10
2023-04-19T20:29:06.868Z,9.00
2023-04-19T20:30:39.656Z,9.00
2023-04-19T20:32:12.423Z,9.00
2023-04-19T20:33:46.554Z,8.90
2023-04-19T20:35:19.442Z,8.90